sensor_id;sensor_type;location;lat;lon;timestamp;P1;durP1;ratioP1;P2;durP2;ratioP2
10491;SDS011;5293;51.464;-2.566;2023-08-21T00:01:18;6.27;;;2.97;;
10491;SDS011;5293;51.464;-2.566;2023-08-21T00:03:43;7.93;;;3.53;;
10491;SDS011;5293;51.464;-2.566;2023-08-21T00:06:09;6.80;;;3.03;;
10491;SDS011;5293;51.464;-2.566;2023-08-21T00:08:35;7.03;;;3.10;;
10491;SDS011;5293;51.464;-2.566;2023-08-21T00:11:01;7.13;;;2.63;;
10491;SDS011;5293;51.464;-2.566;2023-08-21T00:13:27;7.03;;;3.00;;
10491;SDS011;5293;51.464;-2.566;2023-08-21T00:15:53;10.40;;;3.63;;
10491;SDS011;5293;51.464;-2.566;2023-08-21T00:18:20;6.93;;;3.20;;
10491;SDS011;5293;51.464;-2.566;2023-08-21T00:20:46;4.70;;;2.60;;
10491;SDS011;5293;51.464;-2.566;2023-08-21T00:23:11;5.67;;;3.30;;
10491;SDS011;5293;51.464;-2.566;2023-08-21T00:25:37;7.93;;;3.20;;
10491;SDS011;5293;51.464;-2.566;2023-08-21T00:28:03;6.63;;;3.23;;
10491;SDS011;5293;51.464;-2.566;2023-08-21T00:30:29;5.43;;;3.43;;
10491;SDS011;5293;51.464;-2.566;2023-08-21T00:32:55;7.27;;;3.20;;
10491;SDS011;5293;51.464;-2.566;2023-08-21T00:35:20;7.87;;;3.30;;
10491;SDS011;5293;51.464;-2.566;2023-08-21T00:37:46;7.80;;;3.20;;
10491;SDS011;5293;51.464;-2.566;2023-08-21T00:40:12;12.23;;;3.87;;
10491;SDS011;5293;51.464;-2.566;2023-08-21T00:42:38;10.03;;;3.40;;
10491;SDS011;5293;51.464;-2.566;2023-08-21T00:45:04;8.50;;;3.87;;
10491;SDS011;5293;51.464;-2.566;2023-08-21T00:47:33;7.57;;;3.27;;
10491;SDS011;5293;51.464;-2.566;2023-08-21T00:49:59;7.53;;;3.03;;
10491;SDS011;5293;51.464;-2.566;2023-08-21T00:52:25;6.53;;;3.37;;
10491;SDS011;5293;51.464;-2.566;2023-08-21T00:54:51;9.33;;;3.40;;
10491;SDS011;5293;51.464;-2.566;2023-08-21T00:57:17;7.53;;;3.00;;
10491;SDS011;5293;51.464;-2.566;2023-08-21T00:59:43;7.77;;;3.37;;
10491;SDS011;5293;51.464;-2.566;2023-08-21T01:02:08;8.50;;;3.80;;
10491;SDS011;5293;51.464;-2.566;2023-08-21T01:04:34;5.87;;;3.20;;
10491;SDS011;5293;51.464;-2.566;2023-08-21T01:07:00;9.37;;;4.20;;
10491;SDS011;5293;51.464;-2.566;2023-08-21T01:15:27;7.90;;;3.37;;
10491;SDS011;5293;51.464;-2.566;2023-08-21T01:17:54;13.60;;;3.70;;
10491;SDS011;5293;51.464;-2.566;2023-08-21T01:20:21;8.67;;;3.13;;
10491;SDS011;5293;51.464;-2.566;2023-08-21T01:22:48;4.07;;;3.37;;
10491;SDS011;5293;51.464;-2.566;2023-08-21T01:25:15;7.63;;;3.37;;
10491;SDS011;5293;51.464;-2.566;2023-08-21T01:27:42;8.90;;;3.97;;
10491;SDS011;5293;51.464;-2.566;2023-08-21T01:30:15;7.47;;;4.10;;
10491;SDS011;5293;51.464;-2.566;2023-08-21T01:33:02;10.20;;;3.67;;
10491;SDS011;5293;51.464;-2.566;2023-08-21T01:35:33;9.60;;;3.07;;
10491;SDS011;5293;51.464;-2.566;2023-08-21T01:38:01;9.93;;;3.10;;
10491;SDS011;5293;51.464;-2.566;2023-08-21T01:40:30;5.03;;;3.50;;
10491;SDS011;5293;51.464;-2.566;2023-08-21T01:42:56;11.23;;;3.77;;
10491;SDS011;5293;51.464;-2.566;2023-08-21T01:45:22;12.07;;;3.43;;
10491;SDS011;5293;51.464;-2.566;2023-08-21T01:47:48;12.70;;;3.60;;
10491;SDS011;5293;51.464;-2.566;2023-08-21T01:50:13;5.93;;;2.87;;
10491;SDS011;5293;51.464;-2.566;2023-08-21T01:52:39;6.90;;;3.40;;
10491;SDS011;5293;51.464;-2.566;2023-08-21T01:55:05;6.83;;;3.20;;
10491;SDS011;5293;51.464;-2.566;2023-08-21T01:57:33;7.27;;;3.20;;
10491;SDS011;5293;51.464;-2.566;2023-08-21T01:59:59;12.77;;;4.00;;
10491;SDS011;5293;51.464;-2.566;2023-08-21T02:02:24;5.80;;;3.00;;
10491;SDS011;5293;51.464;-2.566;2023-08-21T02:04:50;10.53;;;3.37;;
10491;SDS011;5293;51.464;-2.566;2023-08-21T02:07:16;5.90;;;3.00;;
10491;SDS011;5293;51.464;-2.566;2023-08-21T02:09:41;6.63;;;2.93;;
10491;SDS011;5293;51.464;-2.566;2023-08-21T02:12:07;6.37;;;3.10;;
10491;SDS011;5293;51.464;-2.566;2023-08-21T02:14:33;8.00;;;3.13;;
10491;SDS011;5293;51.464;-2.566;2023-08-21T02:16:59;6.17;;;3.30;;
10491;SDS011;5293;51.464;-2.566;2023-08-21T02:19:24;9.20;;;3.20;;
10491;SDS011;5293;51.464;-2.566;2023-08-21T02:21:50;8.83;;;3.33;;
10491;SDS011;5293;51.464;-2.566;2023-08-21T02:24:16;8.70;;;4.07;;
10491;SDS011;5293;51.464;-2.566;2023-08-21T02:26:42;8.77;;;3.77;;
10491;SDS011;5293;51.464;-2.566;2023-08-21T02:29:10;6.60;;;3.90;;
10491;SDS011;5293;51.464;-2.566;2023-08-21T02:31:35;9.33;;;3.57;;
10491;SDS011;5293;51.464;-2.566;2023-08-21T02:34:01;12.33;;;4.27;;
10491;SDS011;5293;51.464;-2.566;2023-08-21T02:36:27;7.23;;;3.57;;
10491;SDS011;5293;51.464;-2.566;2023-08-21T02:38:52;9.13;;;3.53;;
10491;SDS011;5293;51.464;-2.566;2023-08-21T02:41:18;6.70;;;3.57;;
10491;SDS011;5293;51.464;-2.566;2023-08-21T02:43:44;6.20;;;3.27;;
10491;SDS011;5293;51.464;-2.566;2023-08-21T02:46:09;4.83;;;3.53;;
10491;SDS011;5293;51.464;-2.566;2023-08-21T02:48:35;6.07;;;3.50;;
10491;SDS011;5293;51.464;-2.566;2023-08-21T02:51:01;7.90;;;3.60;;
10491;SDS011;5293;51.464;-2.566;2023-08-21T02:53:27;7.83;;;3.53;;
10491;SDS011;5293;51.464;-2.566;2023-08-21T02:55:53;6.97;;;3.97;;
10491;SDS011;5293;51.464;-2.566;2023-08-21T02:58:19;5.97;;;3.60;;
10491;SDS011;5293;51.464;-2.566;2023-08-21T03:00:45;8.80;;;3.63;;
10491;SDS011;5293;51.464;-2.566;2023-08-21T03:03:11;6.97;;;3.97;;
10491;SDS011;5293;51.464;-2.566;2023-08-21T03:05:36;6.30;;;3.27;;
10491;SDS011;5293;51.464;-2.566;2023-08-21T03:08:02;7.17;;;3.57;;
10491;SDS011;5293;51.464;-2.566;2023-08-21T03:10:28;8.07;;;3.63;;
10491;SDS011;5293;51.464;-2.566;2023-08-21T03:12:58;8.53;;;3.63;;
10491;SDS011;5293;51.464;-2.566;2023-08-21T03:15:24;8.27;;;3.90;;
10491;SDS011;5293;51.464;-2.566;2023-08-21T03:17:49;9.20;;;3.87;;
10491;SDS011;5293;51.464;-2.566;2023-08-21T03:20:15;8.90;;;3.80;;
10491;SDS011;5293;51.464;-2.566;2023-08-21T03:22:42;8.33;;;3.63;;
10491;SDS011;5293;51.464;-2.566;2023-08-21T03:25:08;8.63;;;3.67;;
10491;SDS011;5293;51.464;-2.566;2023-08-21T03:27:34;10.83;;;3.50;;
10491;SDS011;5293;51.464;-2.566;2023-08-21T03:30:04;7.90;;;3.57;;
10491;SDS011;5293;51.464;-2.566;2023-08-21T03:32:32;11.07;;;3.57;;
10491;SDS011;5293;51.464;-2.566;2023-08-21T03:34:58;5.63;;;3.57;;
10491;SDS011;5293;51.464;-2.566;2023-08-21T03:37:24;7.27;;;3.47;;
10491;SDS011;5293;51.464;-2.566;2023-08-21T03:39:50;7.43;;;3.90;;
10491;SDS011;5293;51.464;-2.566;2023-08-21T03:42:15;9.37;;;3.33;;
10491;SDS011;5293;51.464;-2.566;2023-08-21T03:44:41;7.63;;;3.67;;
10491;SDS011;5293;51.464;-2.566;2023-08-21T03:47:07;4.67;;;3.27;;
10491;SDS011;5293;51.464;-2.566;2023-08-21T03:49:33;6.40;;;3.37;;
10491;SDS011;5293;51.464;-2.566;2023-08-21T03:51:58;6.20;;;3.67;;
10491;SDS011;5293;51.464;-2.566;2023-08-21T03:54:24;6.60;;;3.10;;
10491;SDS011;5293;51.464;-2.566;2023-08-21T03:56:50;4.90;;;2.83;;
10491;SDS011;5293;51.464;-2.566;2023-08-21T03:59:15;6.10;;;3.07;;
10491;SDS011;5293;51.464;-2.566;2023-08-21T04:01:41;9.03;;;3.20;;
10491;SDS011;5293;51.464;-2.566;2023-08-21T04:04:06;6.43;;;3.17;;
10491;SDS011;5293;51.464;-2.566;2023-08-21T04:06:32;3.77;;;2.93;;
10491;SDS011;5293;51.464;-2.566;2023-08-21T04:08:58;5.67;;;3.80;;
10491;SDS011;5293;51.464;-2.566;2023-08-21T04:11:23;6.07;;;2.90;;
10491;SDS011;5293;51.464;-2.566;2023-08-21T04:13:49;8.83;;;3.60;;
10491;SDS011;5293;51.464;-2.566;2023-08-21T04:16:15;3.67;;;2.67;;
10491;SDS011;5293;51.464;-2.566;2023-08-21T04:18:42;5.10;;;3.17;;
10491;SDS011;5293;51.464;-2.566;2023-08-21T04:21:08;6.50;;;3.17;;
10491;SDS011;5293;51.464;-2.566;2023-08-21T04:23:34;6.53;;;2.90;;
10491;SDS011;5293;51.464;-2.566;2023-08-21T04:26:01;5.60;;;3.70;;
10491;SDS011;5293;51.464;-2.566;2023-08-21T04:28:27;7.60;;;3.00;;
10491;SDS011;5293;51.464;-2.566;2023-08-21T04:30:55;7.57;;;3.40;;
10491;SDS011;5293;51.464;-2.566;2023-08-21T04:33:22;6.47;;;3.20;;
10491;SDS011;5293;51.464;-2.566;2023-08-21T04:35:53;8.17;;;3.77;;
10491;SDS011;5293;51.464;-2.566;2023-08-21T04:38:18;6.50;;;2.80;;
10491;SDS011;5293;51.464;-2.566;2023-08-21T04:40:44;5.07;;;2.90;;
10491;SDS011;5293;51.464;-2.566;2023-08-21T04:43:10;8.13;;;3.10;;
10491;SDS011;5293;51.464;-2.566;2023-08-21T04:45:35;5.60;;;2.93;;
10491;SDS011;5293;51.464;-2.566;2023-08-21T04:48:03;8.83;;;3.30;;
10491;SDS011;5293;51.464;-2.566;2023-08-21T04:50:29;7.67;;;3.30;;
10491;SDS011;5293;51.464;-2.566;2023-08-21T04:52:55;5.53;;;3.20;;
10491;SDS011;5293;51.464;-2.566;2023-08-21T04:55:21;6.87;;;3.10;;
10491;SDS011;5293;51.464;-2.566;2023-08-21T04:57:47;6.60;;;3.20;;
10491;SDS011;5293;51.464;-2.566;2023-08-21T05:00:12;10.13;;;3.27;;
10491;SDS011;5293;51.464;-2.566;2023-08-21T05:02:40;6.97;;;2.70;;
10491;SDS011;5293;51.464;-2.566;2023-08-21T05:05:06;6.23;;;3.20;;
10491;SDS011;5293;51.464;-2.566;2023-08-21T05:07:34;6.20;;;3.07;;
10491;SDS011;5293;51.464;-2.566;2023-08-21T05:10:00;4.40;;;3.20;;
10491;SDS011;5293;51.464;-2.566;2023-08-21T05:12:26;7.03;;;3.03;;
10491;SDS011;5293;51.464;-2.566;2023-08-21T05:14:51;4.30;;;3.00;;
10491;SDS011;5293;51.464;-2.566;2023-08-21T05:17:17;6.43;;;3.10;;
10491;SDS011;5293;51.464;-2.566;2023-08-21T05:19:42;8.17;;;3.80;;
10491;SDS011;5293;51.464;-2.566;2023-08-21T05:22:08;8.90;;;3.43;;
10491;SDS011;5293;51.464;-2.566;2023-08-21T05:24:34;6.97;;;3.43;;
10491;SDS011;5293;51.464;-2.566;2023-08-21T05:27:00;7.50;;;3.60;;
10491;SDS011;5293;51.464;-2.566;2023-08-21T05:29:25;7.90;;;3.20;;
10491;SDS011;5293;51.464;-2.566;2023-08-21T05:31:51;4.70;;;3.10;;
10491;SDS011;5293;51.464;-2.566;2023-08-21T05:34:17;7.67;;;2.90;;
10491;SDS011;5293;51.464;-2.566;2023-08-21T05:36:43;6.50;;;2.97;;
10491;SDS011;5293;51.464;-2.566;2023-08-21T05:39:08;4.93;;;3.33;;
10491;SDS011;5293;51.464;-2.566;2023-08-21T05:41:34;5.63;;;3.20;;
10491;SDS011;5293;51.464;-2.566;2023-08-21T05:44:00;4.23;;;2.80;;
10491;SDS011;5293;51.464;-2.566;2023-08-21T05:46:25;6.93;;;3.13;;
10491;SDS011;5293;51.464;-2.566;2023-08-21T05:48:51;10.27;;;3.23;;
10491;SDS011;5293;51.464;-2.566;2023-08-21T05:51:17;4.67;;;3.13;;
10491;SDS011;5293;51.464;-2.566;2023-08-21T05:53:42;4.67;;;3.20;;
10491;SDS011;5293;51.464;-2.566;2023-08-21T05:56:08;8.17;;;3.20;;
10491;SDS011;5293;51.464;-2.566;2023-08-21T05:58:34;6.27;;;3.27;;
10491;SDS011;5293;51.464;-2.566;2023-08-21T06:01:00;5.50;;;2.90;;
10491;SDS011;5293;51.464;-2.566;2023-08-21T06:03:25;7.23;;;2.70;;
10491;SDS011;5293;51.464;-2.566;2023-08-21T06:05:51;6.50;;;2.80;;
10491;SDS011;5293;51.464;-2.566;2023-08-21T06:08:17;7.07;;;2.93;;
10491;SDS011;5293;51.464;-2.566;2023-08-21T06:10:43;6.63;;;3.03;;
10491;SDS011;5293;51.464;-2.566;2023-08-21T06:13:09;8.07;;;3.13;;
10491;SDS011;5293;51.464;-2.566;2023-08-21T06:15:34;8.37;;;2.80;;
10491;SDS011;5293;51.464;-2.566;2023-08-21T06:18:00;5.47;;;2.80;;
10491;SDS011;5293;51.464;-2.566;2023-08-21T06:20:26;7.97;;;2.90;;
10491;SDS011;5293;51.464;-2.566;2023-08-21T06:22:52;6.53;;;2.90;;
10491;SDS011;5293;51.464;-2.566;2023-08-21T06:25:17;7.77;;;3.03;;
10491;SDS011;5293;51.464;-2.566;2023-08-21T06:27:44;4.33;;;2.73;;
10491;SDS011;5293;51.464;-2.566;2023-08-21T06:30:10;6.10;;;3.07;;
10491;SDS011;5293;51.464;-2.566;2023-08-21T06:32:36;5.03;;;2.80;;
10491;SDS011;5293;51.464;-2.566;2023-08-21T06:35:01;5.07;;;2.90;;
10491;SDS011;5293;51.464;-2.566;2023-08-21T06:37:27;5.70;;;3.03;;
10491;SDS011;5293;51.464;-2.566;2023-08-21T06:39:53;5.30;;;3.07;;
10491;SDS011;5293;51.464;-2.566;2023-08-21T06:42:18;5.53;;;2.97;;
10491;SDS011;5293;51.464;-2.566;2023-08-21T06:44:44;9.53;;;3.43;;
10491;SDS011;5293;51.464;-2.566;2023-08-21T06:47:10;7.83;;;2.63;;
10491;SDS011;5293;51.464;-2.566;2023-08-21T06:49:35;7.87;;;3.03;;
10491;SDS011;5293;51.464;-2.566;2023-08-21T06:52:01;4.70;;;2.57;;
10491;SDS011;5293;51.464;-2.566;2023-08-21T06:54:28;5.10;;;3.00;;
10491;SDS011;5293;51.464;-2.566;2023-08-21T06:56:54;5.63;;;2.93;;
10491;SDS011;5293;51.464;-2.566;2023-08-21T06:59:20;3.07;;;2.43;;
10491;SDS011;5293;51.464;-2.566;2023-08-21T07:01:45;5.60;;;2.67;;
10491;SDS011;5293;51.464;-2.566;2023-08-21T07:04:11;4.57;;;2.70;;
10491;SDS011;5293;51.464;-2.566;2023-08-21T07:06:37;7.77;;;2.53;;
10491;SDS011;5293;51.464;-2.566;2023-08-21T07:09:02;6.37;;;2.70;;
10491;SDS011;5293;51.464;-2.566;2023-08-21T07:11:28;6.70;;;3.10;;
10491;SDS011;5293;51.464;-2.566;2023-08-21T07:13:53;5.80;;;2.30;;
10491;SDS011;5293;51.464;-2.566;2023-08-21T07:16:20;8.77;;;3.03;;
10491;SDS011;5293;51.464;-2.566;2023-08-21T07:18:45;4.93;;;2.73;;
10491;SDS011;5293;51.464;-2.566;2023-08-21T07:21:11;4.67;;;2.60;;
10491;SDS011;5293;51.464;-2.566;2023-08-21T07:23:37;7.57;;;2.70;;
10491;SDS011;5293;51.464;-2.566;2023-08-21T07:26:02;6.00;;;2.60;;
10491;SDS011;5293;51.464;-2.566;2023-08-21T07:28:30;3.50;;;2.20;;
10491;SDS011;5293;51.464;-2.566;2023-08-21T07:30:56;6.70;;;2.60;;
10491;SDS011;5293;51.464;-2.566;2023-08-21T07:33:22;4.03;;;2.10;;
10491;SDS011;5293;51.464;-2.566;2023-08-21T07:36:02;8.33;;;2.50;;
10491;SDS011;5293;51.464;-2.566;2023-08-21T07:38:29;7.33;;;2.30;;
10491;SDS011;5293;51.464;-2.566;2023-08-21T07:41:01;3.10;;;2.00;;
10491;SDS011;5293;51.464;-2.566;2023-08-21T07:43:29;4.13;;;2.47;;
10491;SDS011;5293;51.464;-2.566;2023-08-21T07:45:55;3.37;;;1.67;;
10491;SDS011;5293;51.464;-2.566;2023-08-21T07:48:20;5.10;;;1.60;;
10491;SDS011;5293;51.464;-2.566;2023-08-21T07:50:52;5.83;;;2.43;;
10491;SDS011;5293;51.464;-2.566;2023-08-21T07:53:18;3.93;;;1.90;;
10491;SDS011;5293;51.464;-2.566;2023-08-21T07:55:44;4.63;;;1.70;;
10491;SDS011;5293;51.464;-2.566;2023-08-21T07:58:10;6.53;;;1.70;;
10491;SDS011;5293;51.464;-2.566;2023-08-21T08:00:37;3.43;;;1.40;;
10491;SDS011;5293;51.464;-2.566;2023-08-21T08:03:04;3.30;;;1.60;;
10491;SDS011;5293;51.464;-2.566;2023-08-21T08:05:30;2.57;;;1.50;;
10491;SDS011;5293;51.464;-2.566;2023-08-21T08:07:56;5.33;;;2.07;;
10491;SDS011;5293;51.464;-2.566;2023-08-21T08:10:23;5.13;;;2.03;;
10491;SDS011;5293;51.464;-2.566;2023-08-21T08:12:49;6.63;;;2.00;;
10491;SDS011;5293;51.464;-2.566;2023-08-21T08:15:15;5.67;;;1.90;;
10491;SDS011;5293;51.464;-2.566;2023-08-21T08:17:40;4.87;;;1.70;;
10491;SDS011;5293;51.464;-2.566;2023-08-21T08:20:06;3.40;;;1.77;;
10491;SDS011;5293;51.464;-2.566;2023-08-21T08:22:32;2.63;;;1.40;;
10491;SDS011;5293;51.464;-2.566;2023-08-21T08:24:58;6.43;;;1.40;;
10491;SDS011;5293;51.464;-2.566;2023-08-21T08:27:23;5.20;;;1.50;;
10491;SDS011;5293;51.464;-2.566;2023-08-21T08:29:49;4.23;;;1.47;;
10491;SDS011;5293;51.464;-2.566;2023-08-21T08:32:15;7.17;;;2.00;;
10491;SDS011;5293;51.464;-2.566;2023-08-21T08:34:41;3.17;;;1.33;;
10491;SDS011;5293;51.464;-2.566;2023-08-21T08:37:06;6.60;;;1.57;;
10491;SDS011;5293;51.464;-2.566;2023-08-21T08:39:32;6.93;;;1.50;;
10491;SDS011;5293;51.464;-2.566;2023-08-21T08:41:58;4.83;;;1.00;;
10491;SDS011;5293;51.464;-2.566;2023-08-21T08:44:28;6.00;;;1.20;;
10491;SDS011;5293;51.464;-2.566;2023-08-21T08:46:55;3.13;;;1.03;;
10491;SDS011;5293;51.464;-2.566;2023-08-21T08:49:22;3.17;;;1.40;;
10491;SDS011;5293;51.464;-2.566;2023-08-21T08:51:49;4.07;;;0.90;;
10491;SDS011;5293;51.464;-2.566;2023-08-21T08:54:16;4.43;;;1.10;;
10491;SDS011;5293;51.464;-2.566;2023-08-21T08:56:43;3.30;;;1.70;;
10491;SDS011;5293;51.464;-2.566;2023-08-21T08:59:09;1.00;;;0.90;;
10491;SDS011;5293;51.464;-2.566;2023-08-21T09:01:34;3.50;;;1.57;;
10491;SDS011;5293;51.464;-2.566;2023-08-21T09:04:00;6.00;;;1.63;;
10491;SDS011;5293;51.464;-2.566;2023-08-21T09:06:26;4.57;;;1.10;;
10491;SDS011;5293;51.464;-2.566;2023-08-21T09:08:54;3.23;;;1.30;;
10491;SDS011;5293;51.464;-2.566;2023-08-21T09:11:21;3.43;;;1.30;;
10491;SDS011;5293;51.464;-2.566;2023-08-21T09:13:50;3.23;;;1.10;;
10491;SDS011;5293;51.464;-2.566;2023-08-21T09:16:20;3.53;;;1.03;;
10491;SDS011;5293;51.464;-2.566;2023-08-21T09:18:50;5.30;;;1.47;;
10491;SDS011;5293;51.464;-2.566;2023-08-21T09:21:19;4.70;;;1.10;;
10491;SDS011;5293;51.464;-2.566;2023-08-21T09:23:45;3.13;;;1.17;;
10491;SDS011;5293;51.464;-2.566;2023-08-21T09:26:18;1.73;;;1.10;;
10491;SDS011;5293;51.464;-2.566;2023-08-21T09:28:48;1.53;;;0.80;;
10491;SDS011;5293;51.464;-2.566;2023-08-21T09:31:14;3.27;;;1.00;;
10491;SDS011;5293;51.464;-2.566;2023-08-21T09:33:40;1.37;;;1.00;;
10491;SDS011;5293;51.464;-2.566;2023-08-21T09:36:06;1.70;;;0.93;;
10491;SDS011;5293;51.464;-2.566;2023-08-21T09:38:34;3.13;;;1.00;;
10491;SDS011;5293;51.464;-2.566;2023-08-21T09:41:03;4.53;;;0.90;;
10491;SDS011;5293;51.464;-2.566;2023-08-21T09:43:28;0.73;;;0.73;;
10491;SDS011;5293;51.464;-2.566;2023-08-21T09:45:55;3.10;;;1.00;;
10491;SDS011;5293;51.464;-2.566;2023-08-21T09:48:24;4.90;;;2.53;;
10491;SDS011;5293;51.464;-2.566;2023-08-21T09:50:54;3.47;;;1.73;;
10491;SDS011;5293;51.464;-2.566;2023-08-21T09:53:20;3.33;;;1.40;;
10491;SDS011;5293;51.464;-2.566;2023-08-21T09:55:53;3.77;;;1.07;;
10491;SDS011;5293;51.464;-2.566;2023-08-21T09:58:20;1.77;;;1.00;;
10491;SDS011;5293;51.464;-2.566;2023-08-21T10:00:46;1.27;;;1.17;;
10491;SDS011;5293;51.464;-2.566;2023-08-21T10:03:13;2.60;;;0.80;;
10491;SDS011;5293;51.464;-2.566;2023-08-21T10:05:43;4.57;;;1.20;;
10491;SDS011;5293;51.464;-2.566;2023-08-21T10:08:10;5.27;;;1.20;;
10491;SDS011;5293;51.464;-2.566;2023-08-21T10:10:37;1.40;;;1.00;;
10491;SDS011;5293;51.464;-2.566;2023-08-21T10:13:04;2.50;;;1.00;;
10491;SDS011;5293;51.464;-2.566;2023-08-21T10:15:31;6.57;;;1.17;;
10491;SDS011;5293;51.464;-2.566;2023-08-21T10:18:20;1.73;;;1.27;;
10491;SDS011;5293;51.464;-2.566;2023-08-21T10:21:09;3.73;;;1.10;;
10491;SDS011;5293;51.464;-2.566;2023-08-21T10:23:35;6.00;;;1.20;;
10491;SDS011;5293;51.464;-2.566;2023-08-21T10:26:05;3.17;;;2.50;;
10491;SDS011;5293;51.464;-2.566;2023-08-21T10:34:02;2.63;;;1.13;;
10491;SDS011;5293;51.464;-2.566;2023-08-21T10:39:16;2.63;;;0.93;;
10491;SDS011;5293;51.464;-2.566;2023-08-21T10:41:56;3.23;;;1.50;;
10491;SDS011;5293;51.464;-2.566;2023-08-21T10:47:22;2.10;;;1.20;;
10491;SDS011;5293;51.464;-2.566;2023-08-21T10:50:03;3.70;;;1.17;;
10491;SDS011;5293;51.464;-2.566;2023-08-21T10:52:40;3.33;;;1.30;;
10491;SDS011;5293;51.464;-2.566;2023-08-21T10:55:10;5.60;;;1.30;;
10491;SDS011;5293;51.464;-2.566;2023-08-21T10:57:37;4.03;;;1.40;;
10491;SDS011;5293;51.464;-2.566;2023-08-21T11:02:30;2.10;;;1.50;;
10491;SDS011;5293;51.464;-2.566;2023-08-21T11:04:57;2.17;;;1.40;;
10491;SDS011;5293;51.464;-2.566;2023-08-21T11:07:24;2.57;;;1.30;;
10491;SDS011;5293;51.464;-2.566;2023-08-21T11:09:50;1.73;;;1.10;;
10491;SDS011;5293;51.464;-2.566;2023-08-21T11:12:23;3.43;;;1.40;;
10491;SDS011;5293;51.464;-2.566;2023-08-21T11:14:50;5.20;;;1.40;;
10491;SDS011;5293;51.464;-2.566;2023-08-21T11:17:16;1.57;;;0.93;;
10491;SDS011;5293;51.464;-2.566;2023-08-21T11:19:43;2.97;;;1.13;;
10491;SDS011;5293;51.464;-2.566;2023-08-21T11:22:10;3.90;;;1.70;;
10491;SDS011;5293;51.464;-2.566;2023-08-21T11:27:02;3.67;;;0.97;;
10491;SDS011;5293;51.464;-2.566;2023-08-21T11:29:31;3.23;;;1.10;;
10491;SDS011;5293;51.464;-2.566;2023-08-21T11:32:17;0.90;;;0.90;;
10491;SDS011;5293;51.464;-2.566;2023-08-21T11:35:02;3.83;;;1.10;;
10491;SDS011;5293;51.464;-2.566;2023-08-21T11:37:28;1.77;;;1.10;;
10491;SDS011;5293;51.464;-2.566;2023-08-21T11:39:57;2.00;;;1.20;;
10491;SDS011;5293;51.464;-2.566;2023-08-21T11:42:33;3.33;;;1.30;;
10491;SDS011;5293;51.464;-2.566;2023-08-21T11:45:02;2.67;;;1.27;;
10491;SDS011;5293;51.464;-2.566;2023-08-21T11:47:31;3.30;;;1.13;;
10491;SDS011;5293;51.464;-2.566;2023-08-21T11:50:05;2.70;;;1.07;;
10491;SDS011;5293;51.464;-2.566;2023-08-21T11:52:32;3.17;;;0.97;;
10491;SDS011;5293;51.464;-2.566;2023-08-21T11:55:00;2.23;;;1.07;;
10491;SDS011;5293;51.464;-2.566;2023-08-21T11:57:26;3.10;;;1.17;;
10491;SDS011;5293;51.464;-2.566;2023-08-21T11:59:55;1.77;;;1.10;;
10491;SDS011;5293;51.464;-2.566;2023-08-21T12:02:24;3.00;;;1.30;;
10491;SDS011;5293;51.464;-2.566;2023-08-21T12:05:13;3.47;;;1.10;;
10491;SDS011;5293;51.464;-2.566;2023-08-21T12:07:39;2.30;;;1.07;;
10491;SDS011;5293;51.464;-2.566;2023-08-21T12:10:05;1.47;;;1.30;;
10491;SDS011;5293;51.464;-2.566;2023-08-21T12:12:31;2.23;;;1.07;;
10491;SDS011;5293;51.464;-2.566;2023-08-21T12:14:57;2.10;;;0.97;;
10491;SDS011;5293;51.464;-2.566;2023-08-21T12:17:23;1.80;;;1.00;;
10491;SDS011;5293;51.464;-2.566;2023-08-21T12:19:48;2.20;;;0.90;;
10491;SDS011;5293;51.464;-2.566;2023-08-21T12:22:14;2.13;;;1.00;;
10491;SDS011;5293;51.464;-2.566;2023-08-21T12:24:40;2.20;;;1.10;;
10491;SDS011;5293;51.464;-2.566;2023-08-21T12:27:05;3.00;;;1.00;;
10491;SDS011;5293;51.464;-2.566;2023-08-21T12:29:31;2.87;;;1.17;;
10491;SDS011;5293;51.464;-2.566;2023-08-21T12:31:57;3.77;;;1.10;;
10491;SDS011;5293;51.464;-2.566;2023-08-21T12:34:23;1.40;;;0.90;;
10491;SDS011;5293;51.464;-2.566;2023-08-21T12:36:52;1.30;;;1.00;;
10491;SDS011;5293;51.464;-2.566;2023-08-21T12:39:17;2.37;;;0.90;;
10491;SDS011;5293;51.464;-2.566;2023-08-21T12:41:43;2.77;;;1.00;;
10491;SDS011;5293;51.464;-2.566;2023-08-21T12:44:09;1.20;;;0.90;;
10491;SDS011;5293;51.464;-2.566;2023-08-21T12:46:35;2.47;;;1.03;;
10491;SDS011;5293;51.464;-2.566;2023-08-21T12:49:01;2.03;;;1.20;;
10491;SDS011;5293;51.464;-2.566;2023-08-21T12:51:27;1.67;;;1.00;;
10491;SDS011;5293;51.464;-2.566;2023-08-21T12:53:53;2.10;;;1.10;;
10491;SDS011;5293;51.464;-2.566;2023-08-21T12:56:19;1.60;;;1.07;;
10491;SDS011;5293;51.464;-2.566;2023-08-21T12:58:45;1.33;;;1.20;;
10491;SDS011;5293;51.464;-2.566;2023-08-21T13:01:12;2.90;;;1.20;;
10491;SDS011;5293;51.464;-2.566;2023-08-21T13:03:37;1.67;;;0.93;;
10491;SDS011;5293;51.464;-2.566;2023-08-21T13:06:03;3.00;;;1.00;;
10491;SDS011;5293;51.464;-2.566;2023-08-21T13:08:29;3.67;;;0.80;;
10491;SDS011;5293;51.464;-2.566;2023-08-21T13:10:55;1.23;;;1.00;;
10491;SDS011;5293;51.464;-2.566;2023-08-21T13:13:21;1.23;;;0.83;;
10491;SDS011;5293;51.464;-2.566;2023-08-21T13:15:46;4.17;;;1.10;;
10491;SDS011;5293;51.464;-2.566;2023-08-21T13:18:12;4.63;;;1.33;;
10491;SDS011;5293;51.464;-2.566;2023-08-21T13:20:40;8.30;;;1.50;;
10491;SDS011;5293;51.464;-2.566;2023-08-21T13:23:06;2.43;;;1.17;;
10491;SDS011;5293;51.464;-2.566;2023-08-21T13:25:33;2.70;;;1.30;;
10491;SDS011;5293;51.464;-2.566;2023-08-21T13:28:00;2.77;;;1.17;;
10491;SDS011;5293;51.464;-2.566;2023-08-21T13:30:27;1.90;;;1.20;;
10491;SDS011;5293;51.464;-2.566;2023-08-21T13:32:52;3.60;;;1.50;;
10491;SDS011;5293;51.464;-2.566;2023-08-21T13:35:19;2.03;;;1.10;;
10491;SDS011;5293;51.464;-2.566;2023-08-21T13:37:45;1.07;;;0.97;;
10491;SDS011;5293;51.464;-2.566;2023-08-21T13:40:11;3.47;;;1.20;;
10491;SDS011;5293;51.464;-2.566;2023-08-21T13:42:39;2.67;;;1.10;;
10491;SDS011;5293;51.464;-2.566;2023-08-21T13:45:16;1.83;;;0.90;;
10491;SDS011;5293;51.464;-2.566;2023-08-21T13:47:47;2.27;;;1.20;;
10491;SDS011;5293;51.464;-2.566;2023-08-21T13:50:13;1.30;;;1.10;;
10491;SDS011;5293;51.464;-2.566;2023-08-21T13:52:43;3.27;;;1.23;;
10491;SDS011;5293;51.464;-2.566;2023-08-21T13:55:09;1.77;;;1.17;;
10491;SDS011;5293;51.464;-2.566;2023-08-21T13:57:35;2.67;;;1.10;;
10491;SDS011;5293;51.464;-2.566;2023-08-21T14:00:03;4.50;;;1.50;;
10491;SDS011;5293;51.464;-2.566;2023-08-21T14:02:47;2.53;;;1.40;;
10491;SDS011;5293;51.464;-2.566;2023-08-21T14:05:13;1.93;;;1.23;;
10491;SDS011;5293;51.464;-2.566;2023-08-21T14:07:39;5.50;;;1.40;;
10491;SDS011;5293;51.464;-2.566;2023-08-21T14:10:06;3.10;;;1.27;;
10491;SDS011;5293;51.464;-2.566;2023-08-21T14:12:32;2.10;;;0.90;;
10491;SDS011;5293;51.464;-2.566;2023-08-21T14:14:58;11.40;;;5.07;;
10491;SDS011;5293;51.464;-2.566;2023-08-21T14:17:24;4.70;;;1.97;;
10491;SDS011;5293;51.464;-2.566;2023-08-21T14:19:50;3.90;;;1.37;;
10491;SDS011;5293;51.464;-2.566;2023-08-21T14:22:15;2.60;;;0.87;;
10491;SDS011;5293;51.464;-2.566;2023-08-21T14:24:41;1.80;;;1.10;;
10491;SDS011;5293;51.464;-2.566;2023-08-21T14:27:07;1.20;;;1.10;;
10491;SDS011;5293;51.464;-2.566;2023-08-21T14:29:32;3.83;;;1.17;;
10491;SDS011;5293;51.464;-2.566;2023-08-21T14:31:58;1.63;;;1.10;;
10491;SDS011;5293;51.464;-2.566;2023-08-21T14:34:25;1.97;;;1.20;;
10491;SDS011;5293;51.464;-2.566;2023-08-21T14:36:52;4.03;;;1.17;;
10491;SDS011;5293;51.464;-2.566;2023-08-21T14:39:19;1.83;;;1.27;;
10491;SDS011;5293;51.464;-2.566;2023-08-21T14:41:45;3.83;;;1.30;;
10491;SDS011;5293;51.464;-2.566;2023-08-21T14:44:11;4.77;;;1.40;;
10491;SDS011;5293;51.464;-2.566;2023-08-21T14:46:37;2.13;;;1.27;;
10491;SDS011;5293;51.464;-2.566;2023-08-21T14:49:02;2.30;;;1.10;;
10491;SDS011;5293;51.464;-2.566;2023-08-21T14:51:28;3.07;;;1.00;;
10491;SDS011;5293;51.464;-2.566;2023-08-21T14:53:54;2.73;;;1.10;;
10491;SDS011;5293;51.464;-2.566;2023-08-21T14:56:20;1.50;;;1.27;;
10491;SDS011;5293;51.464;-2.566;2023-08-21T14:58:46;4.23;;;1.20;;
10491;SDS011;5293;51.464;-2.566;2023-08-21T15:01:12;3.57;;;1.17;;
10491;SDS011;5293;51.464;-2.566;2023-08-21T15:03:39;1.70;;;1.07;;
10491;SDS011;5293;51.464;-2.566;2023-08-21T15:06:04;3.47;;;1.07;;
10491;SDS011;5293;51.464;-2.566;2023-08-21T15:08:31;13.30;;;1.87;;